ASA61 KSEA-PAJN
Flight info
| Callsign | ASA61 |
|---|---|
| Flight time | 2h 22m |
| Altitude | 36000 |
| Route | BANGR9 PANGL KEVNA LVD HOODS |
| Aircraft | B737/M-SDE2E3FGHIRWXY/LB1 |
Departure
| Time | 2026-04-14 14:31 |
|---|---|
| Airport | Seattle–Tacoma International Airport (KSEA) |
Arrival
| Time | 2026-04-14 16:53 |
|---|---|
| Airport | Juneau International Airport (PAJN) |
| Time | Latitude | Longitude | Altitude | Speed | Heading |
|---|---|---|---|---|---|
| 2026-04-14 14:15 | 47.44566 | -122.30315 | 393 ft | 0 kts | 270° |
| 2026-04-14 14:20 | 47.44566 | -122.30311 | 393 ft | 1 kts | 270° |
| 2026-04-14 14:21 | 47.44565 | -122.30285 | 393 ft | 3 kts | 281° |
| 2026-04-14 14:21 | 47.44559 | -122.30259 | 397 ft | 3 kts | 314° |
| 2026-04-14 14:21 | 47.44549 | -122.30249 | 392 ft | 2 kts | 15° |
| 2026-04-14 14:21 | 47.44545 | -122.30250 | 394 ft | 0 kts | 22° |
| 2026-04-14 14:24 | 47.44558 | -122.30242 | 399 ft | 7 kts | 22° |
| 2026-04-14 14:25 | 47.44607 | -122.30212 | 401 ft | 7 kts | 20° |
| 2026-04-14 14:25 | 47.44656 | -122.30214 | 403 ft | 7 kts | 339° |
| 2026-04-14 14:25 | 47.44694 | -122.30263 | 404 ft | 7 kts | 310° |
| 2026-04-14 14:25 | 47.44728 | -122.30322 | 405 ft | 11 kts | 310° |
| 2026-04-14 14:26 | 47.44785 | -122.30421 | 407 ft | 13 kts | 309° |
| 2026-04-14 14:26 | 47.44807 | -122.30543 | 406 ft | 12 kts | 281° |
| 2026-04-14 14:26 | 47.44855 | -122.30634 | 404 ft | 14 kts | 352° |
| 2026-04-14 14:26 | 47.44965 | -122.30632 | 407 ft | 16 kts | 1° |
| 2026-04-14 14:27 | 47.45071 | -122.30629 | 409 ft | 15 kts | 1° |
| 2026-04-14 14:27 | 47.45173 | -122.30626 | 413 ft | 14 kts | 1° |
| 2026-04-14 14:27 | 47.45270 | -122.30624 | 418 ft | 14 kts | 0° |
| 2026-04-14 14:27 | 47.45363 | -122.30624 | 425 ft | 13 kts | 0° |
| 2026-04-14 14:28 | 47.45453 | -122.30624 | 420 ft | 13 kts | 0° |
| 2026-04-14 14:28 | 47.45540 | -122.30623 | 425 ft | 12 kts | 0° |
| 2026-04-14 14:28 | 47.45636 | -122.30623 | 431 ft | 16 kts | 0° |
| 2026-04-14 14:28 | 47.45743 | -122.30623 | 427 ft | 15 kts | 0° |
| 2026-04-14 14:29 | 47.45846 | -122.30620 | 434 ft | 14 kts | 0° |
| 2026-04-14 14:29 | 47.45944 | -122.30618 | 426 ft | 14 kts | 0° |
| 2026-04-14 14:29 | 47.46038 | -122.30617 | 435 ft | 13 kts | 0° |
| 2026-04-14 14:29 | 47.46130 | -122.30617 | 436 ft | 13 kts | 0° |
| 2026-04-14 14:30 | 47.46236 | -122.30616 | 437 ft | 17 kts | 0° |
| 2026-04-14 14:30 | 47.46282 | -122.30738 | 438 ft | 19 kts | 240° |
| 2026-04-14 14:30 | 47.46040 | -122.30780 | 431 ft | 67 kts | 179° |
| 2026-04-14 14:30 | 47.45340 | -122.30784 | 423 ft | 131 kts | 180° |
| 2026-04-14 14:31 | 47.44253 | -122.30773 | 536 ft | 173 kts | 180° |
| 2026-04-14 14:31 | 47.43029 | -122.30837 | 1170 ft | 187 kts | 183° |
| 2026-04-14 14:31 | 47.41817 | -122.30868 | 2384 ft | 167 kts | 185° |
| 2026-04-14 14:31 | 47.40616 | -122.30894 | 2961 ft | 188 kts | 185° |
| 2026-04-14 14:32 | 47.39297 | -122.30920 | 3327 ft | 209 kts | 185° |
| 2026-04-14 14:32 | 47.37812 | -122.30954 | 4023 ft | 218 kts | 185° |
| 2026-04-14 14:32 | 47.36400 | -122.31002 | 4468 ft | 239 kts | 186° |
| 2026-04-14 14:32 | 47.34729 | -122.31097 | 5399 ft | 242 kts | 192° |
| 2026-04-14 14:33 | 47.33183 | -122.31974 | 6380 ft | 241 kts | 218° |
| 2026-04-14 14:33 | 47.32054 | -122.33785 | 7364 ft | 242 kts | 239° |
| 2026-04-14 14:33 | 47.31459 | -122.36086 | 8455 ft | 242 kts | 255° |
| 2026-04-14 14:33 | 47.31162 | -122.38536 | 9410 ft | 246 kts | 259° |
| 2026-04-14 14:34 | 47.30899 | -122.43724 | 10589 ft | 279 kts | 277° |
| 2026-04-14 14:34 | 47.31595 | -122.46544 | 10935 ft | 304 kts | 293° |
| 2026-04-14 14:34 | 47.32613 | -122.49317 | 11650 ft | 311 kts | 294° |
| 2026-04-14 14:35 | 47.33791 | -122.52016 | 12524 ft | 318 kts | 307° |
| 2026-04-14 14:35 | 47.35418 | -122.54256 | 13504 ft | 322 kts | 313° |
| 2026-04-14 14:35 | 47.37101 | -122.56391 | 14360 ft | 324 kts | 314° |
| 2026-04-14 14:35 | 47.38852 | -122.58592 | 15168 ft | 328 kts | 314° |
| 2026-04-14 14:36 | 47.40571 | -122.60761 | 15981 ft | 331 kts | 314° |
| 2026-04-14 14:36 | 47.42324 | -122.62987 | 16836 ft | 334 kts | 314° |
| 2026-04-14 14:36 | 47.44087 | -122.65237 | 17658 ft | 337 kts | 314° |
| 2026-04-14 14:36 | 47.45865 | -122.67517 | 18475 ft | 340 kts | 314° |
| 2026-04-14 14:37 | 47.47658 | -122.69824 | 19138 ft | 344 kts | 314° |
| 2026-04-14 14:37 | 47.49471 | -122.72162 | 19796 ft | 348 kts | 314° |
| 2026-04-14 14:37 | 47.51307 | -122.74532 | 20468 ft | 352 kts | 314° |
| 2026-04-14 14:37 | 47.53158 | -122.76924 | 21145 ft | 355 kts | 314° |
| 2026-04-14 14:38 | 47.55032 | -122.79349 | 21809 ft | 360 kts | 314° |
| 2026-04-14 14:38 | 47.56925 | -122.81800 | 22481 ft | 364 kts | 314° |
| 2026-04-14 14:38 | 47.58844 | -122.84288 | 23144 ft | 368 kts | 314° |
| 2026-04-14 14:38 | 47.60780 | -122.86799 | 23785 ft | 372 kts | 314° |
| 2026-04-14 14:39 | 47.62741 | -122.89347 | 24230 ft | 379 kts | 313° |
| 2026-04-14 14:39 | 47.64730 | -122.91949 | 24696 ft | 382 kts | 312° |
| 2026-04-14 14:39 | 47.66659 | -122.94668 | 25256 ft | 383 kts | 310° |
| 2026-04-14 14:39 | 47.68550 | -122.97458 | 25801 ft | 385 kts | 310° |
| 2026-04-14 14:40 | 47.70441 | -123.00291 | 26297 ft | 388 kts | 309° |
| 2026-04-14 14:40 | 47.72345 | -123.03147 | 26779 ft | 390 kts | 309° |
| 2026-04-14 14:40 | 47.74262 | -123.06012 | 27246 ft | 393 kts | 310° |
| 2026-04-14 14:40 | 47.76206 | -123.08899 | 27656 ft | 397 kts | 310° |
| 2026-04-14 14:41 | 47.78172 | -123.11811 | 28079 ft | 400 kts | 309° |
| 2026-04-14 14:41 | 47.80144 | -123.14746 | 28602 ft | 402 kts | 309° |
| 2026-04-14 14:41 | 47.82125 | -123.17694 | 29034 ft | 405 kts | 310° |
| 2026-04-14 14:41 | 47.84123 | -123.20668 | 29408 ft | 408 kts | 309° |
| 2026-04-14 14:42 | 47.86136 | -123.23665 | 29834 ft | 411 kts | 309° |
| 2026-04-14 14:42 | 47.88162 | -123.26685 | 30238 ft | 413 kts | 309° |
| 2026-04-14 14:42 | 47.90194 | -123.29715 | 30614 ft | 413 kts | 309° |
| 2026-04-14 14:42 | 47.92222 | -123.32739 | 31105 ft | 411 kts | 309° |
| 2026-04-14 14:43 | 47.94231 | -123.35736 | 31650 ft | 407 kts | 309° |
| 2026-04-14 14:43 | 47.96213 | -123.38699 | 32307 ft | 401 kts | 308° |
| 2026-04-14 14:43 | 47.98164 | -123.41617 | 32954 ft | 394 kts | 308° |
| 2026-04-14 14:43 | 48.00095 | -123.44512 | 33383 ft | 393 kts | 308° |
| 2026-04-14 14:44 | 48.02021 | -123.47405 | 33705 ft | 394 kts | 308° |
| 2026-04-14 14:44 | 48.03948 | -123.50311 | 34095 ft | 393 kts | 308° |
| 2026-04-14 14:44 | 48.05866 | -123.53200 | 34493 ft | 390 kts | 308° |
| 2026-04-14 14:44 | 48.07779 | -123.56084 | 34767 ft | 391 kts | 308° |
| 2026-04-14 14:45 | 48.09694 | -123.58975 | 34981 ft | 393 kts | 308° |
| 2026-04-14 14:45 | 48.11616 | -123.61877 | 35268 ft | 392 kts | 308° |
| 2026-04-14 14:45 | 48.13536 | -123.64779 | 35638 ft | 391 kts | 308° |
| 2026-04-14 14:45 | 48.15523 | -123.67569 | 35914 ft | 397 kts | 316° |
| 2026-04-14 14:46 | 48.17861 | -123.69857 | 36120 ft | 403 kts | 320° |
| 2026-04-14 14:46 | 48.20263 | -123.72060 | 36335 ft | 405 kts | 321° |
| 2026-04-14 14:46 | 48.22672 | -123.74244 | 36587 ft | 405 kts | 321° |
| 2026-04-14 14:46 | 48.25079 | -123.76432 | 36859 ft | 404 kts | 321° |
| 2026-04-14 14:47 | 48.27480 | -123.78630 | 37083 ft | 404 kts | 321° |
| 2026-04-14 14:47 | 48.29875 | -123.80838 | 37277 ft | 405 kts | 321° |
| 2026-04-14 14:47 | 48.32241 | -123.83033 | 37477 ft | 405 kts | 321° |
| 2026-04-14 14:47 | 48.34639 | -123.85265 | 37723 ft | 405 kts | 321° |
| 2026-04-14 14:48 | 48.37032 | -123.87499 | 37943 ft | 405 kts | 321° |
| 2026-04-14 14:48 | 48.41845 | -123.92010 | 37993 ft | 408 kts | 321° |
| 2026-04-14 14:49 | 48.46640 | -123.96506 | 37997 ft | 404 kts | 320° |
| 2026-04-14 14:49 | 48.51397 | -124.00979 | 38001 ft | 402 kts | 320° |
| 2026-04-14 14:50 | 48.56127 | -124.05440 | 37995 ft | 400 kts | 320° |
| 2026-04-14 14:50 | 48.60843 | -124.09898 | 37995 ft | 399 kts | 320° |
| 2026-04-14 14:51 | 48.65565 | -124.14374 | 37997 ft | 402 kts | 320° |
| 2026-04-14 14:51 | 48.70311 | -124.18882 | 38054 ft | 404 kts | 320° |
| 2026-04-14 14:52 | 48.75108 | -124.23451 | 37996 ft | 409 kts | 320° |
| 2026-04-14 14:52 | 48.79938 | -124.28058 | 37972 ft | 412 kts | 320° |
| 2026-04-14 14:53 | 48.84785 | -124.32689 | 37983 ft | 412 kts | 320° |
| 2026-04-14 14:53 | 48.89634 | -124.37335 | 37967 ft | 412 kts | 320° |
| 2026-04-14 14:54 | 48.94477 | -124.41979 | 37958 ft | 411 kts | 319° |
| 2026-04-14 14:54 | 48.98477 | -124.45814 | 37952 ft | 407 kts | 319° |
| 2026-04-14 14:55 | 49.03242 | -124.50411 | 37953 ft | 406 kts | 319° |
| 2026-04-14 14:55 | 49.08021 | -124.55041 | 37956 ft | 409 kts | 319° |
| 2026-04-14 14:56 | 49.15226 | -124.62018 | 37988 ft | 409 kts | 319° |
| 2026-04-14 14:56 | 49.20042 | -124.66700 | 37963 ft | 411 kts | 319° |
| 2026-04-14 14:57 | 49.24872 | -124.71414 | 37965 ft | 412 kts | 319° |
| 2026-04-14 14:57 | 49.29703 | -124.76135 | 37960 ft | 412 kts | 319° |
| 2026-04-14 14:58 | 49.34538 | -124.80867 | 37960 ft | 411 kts | 319° |
| 2026-04-14 14:58 | 49.39349 | -124.85589 | 37944 ft | 410 kts | 319° |
| 2026-04-14 14:59 | 49.44152 | -124.90317 | 37929 ft | 410 kts | 319° |
| 2026-04-14 14:59 | 49.48942 | -124.95037 | 37913 ft | 409 kts | 319° |
| 2026-04-14 15:00 | 49.53721 | -124.99762 | 37929 ft | 408 kts | 319° |
| 2026-04-14 15:00 | 49.58497 | -125.04495 | 37924 ft | 408 kts | 319° |
| 2026-04-14 15:01 | 49.63245 | -125.09210 | 37926 ft | 409 kts | 319° |
| 2026-04-14 15:01 | 49.68029 | -125.13972 | 37924 ft | 409 kts | 319° |
| 2026-04-14 15:02 | 49.72816 | -125.18750 | 37916 ft | 411 kts | 319° |
| 2026-04-14 15:02 | 49.77621 | -125.23556 | 37917 ft | 412 kts | 319° |
| 2026-04-14 15:03 | 49.82431 | -125.28377 | 37913 ft | 412 kts | 319° |
| 2026-04-14 15:03 | 49.87231 | -125.33198 | 37887 ft | 412 kts | 319° |
| 2026-04-14 15:04 | 49.92039 | -125.38043 | 37924 ft | 412 kts | 319° |
| 2026-04-14 15:04 | 49.96857 | -125.42910 | 37891 ft | 413 kts | 319° |
| 2026-04-14 15:05 | 50.01681 | -125.47793 | 37879 ft | 414 kts | 319° |
| 2026-04-14 15:05 | 50.06517 | -125.52702 | 37885 ft | 415 kts | 319° |
| 2026-04-14 15:06 | 50.11353 | -125.57620 | 37950 ft | 416 kts | 319° |
| 2026-04-14 15:06 | 50.16210 | -125.62574 | 37898 ft | 418 kts | 319° |
| 2026-04-14 15:07 | 50.21082 | -125.67554 | 37886 ft | 419 kts | 319° |
| 2026-04-14 15:07 | 50.25972 | -125.72565 | 37875 ft | 421 kts | 319° |
| 2026-04-14 15:08 | 50.30867 | -125.77593 | 37879 ft | 422 kts | 319° |
| 2026-04-14 15:08 | 50.35769 | -125.82641 | 37864 ft | 421 kts | 319° |
| 2026-04-14 15:09 | 50.40656 | -125.87686 | 37871 ft | 420 kts | 319° |
| 2026-04-14 15:09 | 50.45535 | -125.92735 | 37865 ft | 420 kts | 319° |
| 2026-04-14 15:10 | 50.50405 | -125.97790 | 37869 ft | 419 kts | 319° |
| 2026-04-14 15:10 | 50.55243 | -126.02824 | 37865 ft | 420 kts | 319° |
| 2026-04-14 15:11 | 50.60114 | -126.07905 | 37847 ft | 420 kts | 319° |
| 2026-04-14 15:11 | 50.64988 | -126.13001 | 37847 ft | 420 kts | 319° |
| 2026-04-14 15:12 | 50.69851 | -126.18099 | 37857 ft | 420 kts | 319° |
| 2026-04-14 15:12 | 50.74730 | -126.23228 | 37848 ft | 422 kts | 319° |
| 2026-04-14 15:13 | 50.79619 | -126.28378 | 37851 ft | 422 kts | 320° |
| 2026-04-14 15:13 | 50.84506 | -126.33539 | 37832 ft | 422 kts | 319° |
| 2026-04-14 15:14 | 50.89389 | -126.38712 | 37841 ft | 423 kts | 319° |
| 2026-04-14 15:14 | 50.94286 | -126.43913 | 37847 ft | 425 kts | 320° |
| 2026-04-14 15:15 | 50.99199 | -126.49143 | 37836 ft | 426 kts | 320° |
| 2026-04-14 15:15 | 51.04160 | -126.54330 | 37818 ft | 428 kts | 321° |
| 2026-04-14 15:16 | 51.09124 | -126.59411 | 37822 ft | 427 kts | 321° |
| 2026-04-14 15:16 | 51.14121 | -126.64541 | 37855 ft | 428 kts | 321° |
| 2026-04-14 15:17 | 51.19128 | -126.69710 | 37805 ft | 429 kts | 320° |
| 2026-04-14 15:17 | 51.24132 | -126.74899 | 37806 ft | 429 kts | 321° |
| 2026-04-14 15:18 | 51.29131 | -126.80096 | 37792 ft | 429 kts | 321° |
| 2026-04-14 15:18 | 51.34121 | -126.85298 | 37777 ft | 428 kts | 321° |
| 2026-04-14 15:19 | 51.39114 | -126.90528 | 37782 ft | 429 kts | 321° |
| 2026-04-14 15:19 | 51.44118 | -126.95769 | 37789 ft | 430 kts | 321° |
| 2026-04-14 15:20 | 51.49125 | -127.01030 | 37771 ft | 431 kts | 321° |
| 2026-04-14 15:20 | 51.54141 | -127.06315 | 37768 ft | 432 kts | 321° |
| 2026-04-14 15:21 | 51.59131 | -127.11585 | 37777 ft | 432 kts | 321° |
| 2026-04-14 15:21 | 51.64177 | -127.16933 | 37757 ft | 432 kts | 321° |
| 2026-04-14 15:22 | 51.69198 | -127.22268 | 37749 ft | 433 kts | 321° |
| 2026-04-14 15:22 | 51.74213 | -127.27610 | 37756 ft | 432 kts | 321° |
| 2026-04-14 15:23 | 51.79199 | -127.32939 | 37744 ft | 433 kts | 321° |
| 2026-04-14 15:23 | 51.84246 | -127.38359 | 37728 ft | 433 kts | 321° |
| 2026-04-14 15:24 | 51.89213 | -127.43681 | 37740 ft | 432 kts | 321° |
| 2026-04-14 15:24 | 51.94255 | -127.49104 | 37740 ft | 433 kts | 321° |
| 2026-04-14 15:25 | 51.99237 | -127.54485 | 37753 ft | 433 kts | 322° |
| 2026-04-14 15:25 | 52.04260 | -127.59924 | 37732 ft | 435 kts | 321° |
| 2026-04-14 15:26 | 52.09290 | -127.65387 | 37732 ft | 435 kts | 321° |
| 2026-04-14 15:26 | 52.14315 | -127.70855 | 37728 ft | 434 kts | 321° |
| 2026-04-14 15:27 | 52.19341 | -127.76342 | 37720 ft | 435 kts | 321° |
| 2026-04-14 15:27 | 52.24366 | -127.81846 | 37721 ft | 436 kts | 322° |
| 2026-04-14 15:28 | 52.29393 | -127.87366 | 37710 ft | 436 kts | 321° |
| 2026-04-14 15:28 | 52.34422 | -127.92903 | 37713 ft | 436 kts | 322° |
| 2026-04-14 15:29 | 52.39451 | -127.98453 | 37707 ft | 436 kts | 321° |
| 2026-04-14 15:29 | 52.44471 | -128.04008 | 37706 ft | 435 kts | 321° |
| 2026-04-14 15:30 | 52.49482 | -128.09571 | 37692 ft | 434 kts | 321° |
| 2026-04-14 15:30 | 52.54478 | -128.15139 | 37678 ft | 434 kts | 322° |
| 2026-04-14 15:31 | 52.59469 | -128.20710 | 37690 ft | 434 kts | 322° |
| 2026-04-14 15:31 | 52.64464 | -128.26301 | 37700 ft | 436 kts | 322° |
| 2026-04-14 15:32 | 52.69479 | -128.31932 | 37693 ft | 437 kts | 322° |
| 2026-04-14 15:32 | 52.74493 | -128.37599 | 37696 ft | 437 kts | 322° |
| 2026-04-14 15:33 | 52.79529 | -128.43275 | 37681 ft | 439 kts | 322° |
| 2026-04-14 15:33 | 52.84572 | -128.48974 | 37713 ft | 439 kts | 322° |
| 2026-04-14 15:34 | 52.89622 | -128.54706 | 37676 ft | 441 kts | 322° |
| 2026-04-14 15:34 | 52.94682 | -128.60468 | 37674 ft | 441 kts | 322° |
| 2026-04-14 15:35 | 52.99741 | -128.66246 | 37666 ft | 441 kts | 322° |
| 2026-04-14 15:35 | 53.04758 | -128.71993 | 37666 ft | 441 kts | 322° |
| 2026-04-14 15:36 | 53.09847 | -128.77839 | 37679 ft | 441 kts | 322° |
| 2026-04-14 15:36 | 53.14852 | -128.83608 | 37647 ft | 440 kts | 322° |
| 2026-04-14 15:37 | 53.19912 | -128.89453 | 37670 ft | 439 kts | 321° |
| 2026-04-14 15:37 | 53.24897 | -128.95228 | 37656 ft | 439 kts | 321° |
| 2026-04-14 15:38 | 53.29909 | -129.01055 | 37652 ft | 439 kts | 321° |
| 2026-04-14 15:38 | 53.34915 | -129.06889 | 37653 ft | 438 kts | 321° |
| 2026-04-14 15:39 | 53.39915 | -129.12734 | 37663 ft | 439 kts | 321° |
| 2026-04-14 15:39 | 53.44918 | -129.18601 | 37663 ft | 439 kts | 321° |
| 2026-04-14 15:40 | 53.49930 | -129.24494 | 37670 ft | 440 kts | 322° |
| 2026-04-14 15:40 | 53.54942 | -129.30404 | 37656 ft | 441 kts | 321° |
| 2026-04-14 15:41 | 53.59967 | -129.36348 | 37650 ft | 442 kts | 321° |
| 2026-04-14 15:41 | 53.64987 | -129.42302 | 37640 ft | 442 kts | 321° |
| 2026-04-14 15:42 | 53.70007 | -129.48275 | 37639 ft | 442 kts | 321° |
| 2026-04-14 15:42 | 53.75025 | -129.54265 | 37652 ft | 442 kts | 321° |
| 2026-04-14 15:43 | 53.79203 | -129.59265 | 37663 ft | 443 kts | 321° |
| 2026-04-14 15:43 | 53.84232 | -129.65298 | 37661 ft | 443 kts | 321° |
| 2026-04-14 15:44 | 53.89265 | -129.71356 | 37653 ft | 444 kts | 321° |
| 2026-04-14 15:44 | 53.94299 | -129.77437 | 37681 ft | 444 kts | 322° |
| 2026-04-14 15:45 | 53.99340 | -129.83540 | 37672 ft | 445 kts | 322° |
| 2026-04-14 15:45 | 54.04386 | -129.89668 | 37661 ft | 446 kts | 322° |
| 2026-04-14 15:46 | 54.09428 | -129.95810 | 37660 ft | 445 kts | 321° |
| 2026-04-14 15:46 | 54.14456 | -130.01952 | 37670 ft | 444 kts | 321° |
| 2026-04-14 15:47 | 54.19464 | -130.08091 | 37678 ft | 443 kts | 322° |
| 2026-04-14 15:47 | 54.24469 | -130.14246 | 37668 ft | 443 kts | 322° |
| 2026-04-14 15:48 | 54.29463 | -130.20405 | 37675 ft | 442 kts | 321° |
| 2026-04-14 15:48 | 54.34424 | -130.26541 | 37666 ft | 443 kts | 321° |
| 2026-04-14 15:49 | 54.39414 | -130.32732 | 37686 ft | 443 kts | 322° |
| 2026-04-14 15:49 | 54.44402 | -130.38941 | 37675 ft | 443 kts | 322° |
| 2026-04-14 15:50 | 54.49422 | -130.45208 | 37680 ft | 443 kts | 321° |
| 2026-04-14 15:50 | 54.54369 | -130.51403 | 37667 ft | 443 kts | 321° |
| 2026-04-14 15:51 | 54.59345 | -130.57653 | 37668 ft | 443 kts | 321° |
| 2026-04-14 15:51 | 54.64321 | -130.63923 | 37668 ft | 443 kts | 321° |
| 2026-04-14 15:52 | 54.69295 | -130.70210 | 37672 ft | 443 kts | 321° |
| 2026-04-14 15:52 | 54.74261 | -130.76507 | 37664 ft | 443 kts | 321° |
| 2026-04-14 15:53 | 54.79229 | -130.82824 | 37656 ft | 443 kts | 321° |
| 2026-04-14 15:53 | 54.84198 | -130.89165 | 37665 ft | 444 kts | 321° |
| 2026-04-14 15:54 | 54.91659 | -130.98720 | 37665 ft | 444 kts | 321° |
| 2026-04-14 15:55 | 54.96627 | -131.05109 | 37664 ft | 444 kts | 321° |
| 2026-04-14 15:55 | 55.01590 | -131.11510 | 37657 ft | 444 kts | 321° |
| 2026-04-14 15:56 | 55.06548 | -131.17924 | 37662 ft | 444 kts | 321° |
| 2026-04-14 15:56 | 55.11498 | -131.24350 | 37663 ft | 443 kts | 321° |
| 2026-04-14 15:57 | 55.16443 | -131.30790 | 37662 ft | 443 kts | 321° |
| 2026-04-14 15:57 | 55.21381 | -131.37240 | 37654 ft | 443 kts | 321° |
| 2026-04-14 15:58 | 55.26308 | -131.43697 | 37676 ft | 442 kts | 321° |
| 2026-04-14 15:58 | 55.31237 | -131.50176 | 37665 ft | 442 kts | 321° |
| 2026-04-14 15:59 | 55.36158 | -131.56666 | 37667 ft | 442 kts | 321° |
| 2026-04-14 15:59 | 55.41072 | -131.63168 | 37668 ft | 442 kts | 321° |
| 2026-04-14 16:00 | 55.45981 | -131.69683 | 37664 ft | 442 kts | 321° |
| 2026-04-14 16:00 | 55.50886 | -131.76214 | 37677 ft | 442 kts | 321° |
| 2026-04-14 16:01 | 55.55790 | -131.82764 | 37665 ft | 442 kts | 321° |
| 2026-04-14 16:01 | 55.60646 | -131.89272 | 37662 ft | 441 kts | 321° |
| 2026-04-14 16:02 | 55.65533 | -131.95842 | 37665 ft | 441 kts | 321° |
| 2026-04-14 16:02 | 55.70413 | -132.02423 | 37664 ft | 441 kts | 321° |
| 2026-04-14 16:03 | 55.75295 | -132.09025 | 37660 ft | 441 kts | 321° |
| 2026-04-14 16:03 | 55.80163 | -132.15634 | 37665 ft | 441 kts | 321° |
| 2026-04-14 16:04 | 55.85031 | -132.22265 | 37660 ft | 440 kts | 321° |
| 2026-04-14 16:04 | 55.89890 | -132.28903 | 37663 ft | 440 kts | 321° |
| 2026-04-14 16:05 | 55.94743 | -132.35555 | 37670 ft | 440 kts | 321° |
| 2026-04-14 16:05 | 55.99589 | -132.42218 | 37660 ft | 440 kts | 321° |
| 2026-04-14 16:06 | 56.04439 | -132.48910 | 37662 ft | 440 kts | 321° |
| 2026-04-14 16:06 | 56.09283 | -132.55615 | 37657 ft | 440 kts | 321° |
| 2026-04-14 16:07 | 56.14119 | -132.62330 | 37658 ft | 439 kts | 321° |
| 2026-04-14 16:07 | 56.18949 | -132.69058 | 37665 ft | 440 kts | 321° |
| 2026-04-14 16:08 | 56.23777 | -132.75807 | 37658 ft | 440 kts | 321° |
| 2026-04-14 16:08 | 56.28601 | -132.82573 | 37671 ft | 439 kts | 321° |
| 2026-04-14 16:09 | 56.33419 | -132.89351 | 37672 ft | 440 kts | 321° |
| 2026-04-14 16:09 | 56.38238 | -132.96156 | 37685 ft | 440 kts | 322° |
| 2026-04-14 16:10 | 56.43060 | -133.02980 | 37674 ft | 441 kts | 321° |
| 2026-04-14 16:10 | 56.47909 | -133.09757 | 37674 ft | 441 kts | 324° |
| 2026-04-14 16:11 | 56.52990 | -133.15985 | 37678 ft | 441 kts | 326° |
| 2026-04-14 16:11 | 56.58131 | -133.22065 | 37678 ft | 441 kts | 326° |
| 2026-04-14 16:12 | 56.63254 | -133.28198 | 37678 ft | 441 kts | 326° |
| 2026-04-14 16:12 | 56.68363 | -133.34393 | 37679 ft | 441 kts | 326° |
| 2026-04-14 16:13 | 56.73464 | -133.40623 | 37678 ft | 441 kts | 326° |
| 2026-04-14 16:13 | 56.78557 | -133.46867 | 37678 ft | 441 kts | 326° |
| 2026-04-14 16:14 | 56.83645 | -133.53123 | 37684 ft | 441 kts | 326° |
| 2026-04-14 16:14 | 56.88729 | -133.59394 | 37493 ft | 444 kts | 326° |
| 2026-04-14 16:14 | 56.91309 | -133.62585 | 36959 ft | 446 kts | 326° |
| 2026-04-14 16:15 | 56.93874 | -133.65761 | 36323 ft | 445 kts | 326° |
| 2026-04-14 16:15 | 56.96433 | -133.68936 | 35725 ft | 444 kts | 326° |
| 2026-04-14 16:15 | 56.98975 | -133.72096 | 35242 ft | 440 kts | 326° |
| 2026-04-14 16:15 | 57.01499 | -133.75238 | 34745 ft | 436 kts | 326° |
| 2026-04-14 16:16 | 57.04001 | -133.78358 | 34264 ft | 433 kts | 326° |
| 2026-04-14 16:16 | 57.06486 | -133.81462 | 33767 ft | 431 kts | 326° |
| 2026-04-14 16:16 | 57.08955 | -133.84551 | 33225 ft | 428 kts | 326° |
| 2026-04-14 16:16 | 57.11403 | -133.87619 | 32712 ft | 423 kts | 326° |
| 2026-04-14 16:17 | 57.13820 | -133.90653 | 32229 ft | 419 kts | 326° |
| 2026-04-14 16:17 | 57.16216 | -133.93665 | 31766 ft | 415 kts | 326° |
| 2026-04-14 16:17 | 57.18587 | -133.96652 | 31309 ft | 411 kts | 326° |
| 2026-04-14 16:17 | 57.20934 | -133.99611 | 30863 ft | 407 kts | 326° |
| 2026-04-14 16:18 | 57.23256 | -134.02544 | 30425 ft | 403 kts | 326° |
| 2026-04-14 16:18 | 57.25564 | -134.05464 | 29999 ft | 400 kts | 326° |
| 2026-04-14 16:18 | 57.27849 | -134.08359 | 29494 ft | 397 kts | 326° |
| 2026-04-14 16:18 | 57.30112 | -134.11231 | 28979 ft | 393 kts | 326° |
| 2026-04-14 16:19 | 57.32351 | -134.14077 | 28509 ft | 388 kts | 326° |
| 2026-04-14 16:19 | 57.34559 | -134.16888 | 28040 ft | 383 kts | 326° |
| 2026-04-14 16:19 | 57.36744 | -134.19672 | 27583 ft | 379 kts | 326° |
| 2026-04-14 16:19 | 57.38907 | -134.22433 | 27126 ft | 375 kts | 326° |
| 2026-04-14 16:20 | 57.41038 | -134.25159 | 26663 ft | 371 kts | 326° |
| 2026-04-14 16:20 | 57.43153 | -134.27868 | 26218 ft | 368 kts | 327° |
| 2026-04-14 16:20 | 57.45251 | -134.30557 | 25773 ft | 365 kts | 327° |
| 2026-04-14 16:20 | 57.47329 | -134.33225 | 25337 ft | 362 kts | 327° |
| 2026-04-14 16:21 | 57.49389 | -134.35874 | 24895 ft | 359 kts | 327° |
| 2026-04-14 16:21 | 57.51437 | -134.38511 | 24471 ft | 356 kts | 327° |
| 2026-04-14 16:21 | 57.53437 | -134.41089 | 24047 ft | 354 kts | 327° |
| 2026-04-14 16:21 | 57.55479 | -134.43727 | 23613 ft | 351 kts | 327° |
| 2026-04-14 16:22 | 57.57456 | -134.46281 | 23161 ft | 350 kts | 327° |
| 2026-04-14 16:22 | 57.59448 | -134.48862 | 22644 ft | 347 kts | 327° |
| 2026-04-14 16:22 | 57.61444 | -134.51449 | 22198 ft | 342 kts | 327° |
| 2026-04-14 16:22 | 57.63385 | -134.53970 | 21775 ft | 338 kts | 327° |
| 2026-04-14 16:23 | 57.65305 | -134.56465 | 21354 ft | 334 kts | 327° |
| 2026-04-14 16:23 | 57.67176 | -134.58900 | 20934 ft | 331 kts | 328° |
| 2026-04-14 16:23 | 57.69085 | -134.61386 | 20491 ft | 328 kts | 328° |
| 2026-04-14 16:23 | 57.70947 | -134.63815 | 20078 ft | 325 kts | 328° |
| 2026-04-14 16:24 | 57.72800 | -134.66236 | 19645 ft | 323 kts | 328° |
| 2026-04-14 16:24 | 57.74612 | -134.68605 | 19244 ft | 321 kts | 328° |
| 2026-04-14 16:24 | 57.76433 | -134.70988 | 18864 ft | 318 kts | 328° |
| 2026-04-14 16:24 | 57.78235 | -134.73350 | 18455 ft | 315 kts | 328° |
| 2026-04-14 16:25 | 57.80025 | -134.75697 | 18060 ft | 313 kts | 328° |
| 2026-04-14 16:25 | 57.81800 | -134.78029 | 17619 ft | 310 kts | 328° |
| 2026-04-14 16:25 | 57.83556 | -134.80335 | 17240 ft | 306 kts | 327° |
| 2026-04-14 16:25 | 57.85296 | -134.82626 | 16968 ft | 306 kts | 327° |
| 2026-04-14 16:26 | 57.87047 | -134.84932 | 16694 ft | 308 kts | 327° |
| 2026-04-14 16:26 | 57.88794 | -134.87238 | 16309 ft | 305 kts | 327° |
| 2026-04-14 16:26 | 57.90520 | -134.89519 | 15923 ft | 302 kts | 327° |
| 2026-04-14 16:26 | 57.92231 | -134.91783 | 15536 ft | 299 kts | 327° |
| 2026-04-14 16:27 | 57.93923 | -134.94024 | 15132 ft | 297 kts | 327° |
| 2026-04-14 16:27 | 57.95604 | -134.96255 | 14733 ft | 295 kts | 327° |
| 2026-04-14 16:27 | 57.97282 | -134.98481 | 14345 ft | 294 kts | 327° |
| 2026-04-14 16:27 | 57.98949 | -135.00695 | 13971 ft | 292 kts | 327° |
| 2026-04-14 16:28 | 58.00046 | -135.02155 | 13713 ft | 291 kts | 327° |
| 2026-04-14 16:28 | 58.01697 | -135.04353 | 13259 ft | 290 kts | 327° |
| 2026-04-14 16:28 | 58.03341 | -135.06545 | 12841 ft | 289 kts | 327° |
| 2026-04-14 16:28 | 58.04971 | -135.08721 | 12465 ft | 286 kts | 327° |
| 2026-04-14 16:29 | 58.06588 | -135.10883 | 12070 ft | 283 kts | 327° |
| 2026-04-14 16:29 | 58.08186 | -135.13019 | 11720 ft | 280 kts | 327° |
| 2026-04-14 16:29 | 58.09770 | -135.15139 | 11337 ft | 278 kts | 327° |
| 2026-04-14 16:29 | 58.11340 | -135.17245 | 10977 ft | 275 kts | 327° |
| 2026-04-14 16:30 | 58.12897 | -135.19333 | 10596 ft | 274 kts | 327° |
| 2026-04-14 16:30 | 58.14480 | -135.21278 | 10216 ft | 269 kts | 340° |
| 2026-04-14 16:30 | 58.16238 | -135.21823 | 10118 ft | 248 kts | 7° |
| 2026-04-14 16:30 | 58.17823 | -135.20924 | 9948 ft | 232 kts | 29° |
| 2026-04-14 16:31 | 58.19096 | -135.19127 | 9657 ft | 226 kts | 45° |
| 2026-04-14 16:31 | 58.19968 | -135.16668 | 9345 ft | 228 kts | 64° |
| 2026-04-14 16:31 | 58.20626 | -135.13912 | 9067 ft | 230 kts | 64° |
| 2026-04-14 16:31 | 58.21275 | -135.11138 | 8727 ft | 230 kts | 65° |
| 2026-04-14 16:32 | 58.21926 | -135.08360 | 8408 ft | 230 kts | 65° |
| 2026-04-14 16:32 | 58.22704 | -135.05788 | 8103 ft | 223 kts | 43° |
| 2026-04-14 16:32 | 58.23989 | -135.04255 | 7826 ft | 218 kts | 23° |
| 2026-04-14 16:32 | 58.25417 | -135.03285 | 7529 ft | 219 kts | 19° |
| 2026-04-14 16:33 | 58.26872 | -135.02402 | 7232 ft | 220 kts | 18° |
| 2026-04-14 16:33 | 58.28329 | -135.01519 | 6940 ft | 221 kts | 18° |
| 2026-04-14 16:33 | 58.29796 | -135.00619 | 6643 ft | 222 kts | 18° |
| 2026-04-14 16:33 | 58.31262 | -134.99708 | 6350 ft | 222 kts | 19° |
| 2026-04-14 16:34 | 58.32731 | -134.98786 | 6065 ft | 221 kts | 19° |
| 2026-04-14 16:34 | 58.34159 | -134.97883 | 5971 ft | 212 kts | 19° |
| 2026-04-14 16:34 | 58.35511 | -134.97027 | 5839 ft | 197 kts | 19° |
| 2026-04-14 16:34 | 58.36767 | -134.96230 | 5746 ft | 185 kts | 19° |
| 2026-04-14 16:35 | 58.37966 | -134.95468 | 5692 ft | 180 kts | 19° |
| 2026-04-14 16:35 | 58.39130 | -134.94675 | 5635 ft | 182 kts | 28° |
| 2026-04-14 16:35 | 58.39957 | -134.92955 | 5544 ft | 169 kts | 69° |
| 2026-04-14 16:35 | 58.40034 | -134.90847 | 5371 ft | 153 kts | 101° |
| 2026-04-14 16:36 | 58.39919 | -134.88966 | 5241 ft | 141 kts | 70° |
| 2026-04-14 16:36 | 58.40393 | -134.87460 | 5160 ft | 136 kts | 70° |
| 2026-04-14 16:36 | 58.40272 | -134.85612 | 4944 ft | 145 kts | 108° |
| 2026-04-14 16:36 | 58.39875 | -134.83917 | 4820 ft | 145 kts | 109° |
| 2026-04-14 16:37 | 58.39489 | -134.82109 | 4601 ft | 147 kts | 109° |
| 2026-04-14 16:37 | 58.39120 | -134.80327 | 4373 ft | 142 kts | 105° |
| 2026-04-14 16:37 | 58.38829 | -134.78536 | 4127 ft | 140 kts | 106° |
| 2026-04-14 16:37 | 58.38517 | -134.76770 | 3964 ft | 141 kts | 103° |
| 2026-04-14 16:38 | 58.38248 | -134.74942 | 3751 ft | 144 kts | 103° |
| 2026-04-14 16:38 | 58.37961 | -134.73109 | 3481 ft | 145 kts | 105° |
| 2026-04-14 16:38 | 58.37674 | -134.71311 | 3266 ft | 141 kts | 104° |
| 2026-04-14 16:38 | 58.37425 | -134.69553 | 2996 ft | 135 kts | 101° |
| 2026-04-14 16:39 | 58.37089 | -134.67837 | 2484 ft | 143 kts | 114° |
| 2026-04-14 16:39 | 58.36685 | -134.66108 | 1979 ft | 140 kts | 108° |
| 2026-04-14 16:39 | 58.36381 | -134.64378 | 1508 ft | 136 kts | 105° |
| 2026-04-14 16:39 | 58.36138 | -134.62662 | 1080 ft | 129 kts | 101° |
| 2026-04-14 16:40 | 58.35915 | -134.60913 | 1090 ft | 137 kts | 101° |
| 2026-04-14 16:40 | 58.35655 | -134.59171 | 1392 ft | 139 kts | 114° |
| 2026-04-14 16:40 | 58.34920 | -134.58011 | 1559 ft | 150 kts | 172° |
| 2026-04-14 16:40 | 58.34032 | -134.58812 | 2224 ft | 139 kts | 246° |
| 2026-04-14 16:41 | 58.33716 | -134.60474 | 3101 ft | 139 kts | 260° |
| 2026-04-14 16:41 | 58.33518 | -134.62427 | 3614 ft | 162 kts | 249° |
| 2026-04-14 16:41 | 58.33120 | -134.64641 | 4300 ft | 197 kts | 255° |
| 2026-04-14 16:41 | 58.32701 | -134.67203 | 4896 ft | 216 kts | 255° |
| 2026-04-14 16:42 | 58.32250 | -134.69984 | 5772 ft | 223 kts | 255° |
| 2026-04-14 16:42 | 58.31794 | -134.72621 | 6662 ft | 229 kts | 246° |
| 2026-04-14 16:42 | 58.30994 | -134.75241 | 7604 ft | 235 kts | 238° |
| 2026-04-14 16:42 | 58.30108 | -134.77875 | 8492 ft | 239 kts | 238° |
| 2026-04-14 16:43 | 58.29206 | -134.80544 | 8915 ft | 240 kts | 241° |
| 2026-04-14 16:43 | 58.28820 | -134.83547 | 8974 ft | 235 kts | 280° |
| 2026-04-14 16:43 | 58.29437 | -134.86221 | 8988 ft | 212 kts | 308° |
| 2026-04-14 16:43 | 58.29980 | -134.88732 | 8832 ft | 202 kts | 278° |
| 2026-04-14 16:44 | 58.30020 | -134.91362 | 8471 ft | 198 kts | 272° |
| 2026-04-14 16:44 | 58.30009 | -134.93958 | 8124 ft | 192 kts | 272° |
| 2026-04-14 16:44 | 58.29991 | -134.96414 | 7753 ft | 187 kts | 272° |
| 2026-04-14 16:45 | 58.29962 | -135.01610 | 6719 ft | 199 kts | 272° |
| 2026-04-14 16:45 | 58.30176 | -135.04147 | 6278 ft | 194 kts | 304° |
| 2026-04-14 16:45 | 58.31207 | -135.05591 | 5883 ft | 184 kts | 348° |
| 2026-04-14 16:45 | 58.32420 | -135.06151 | 5805 ft | 181 kts | 347° |
| 2026-04-14 16:46 | 58.33625 | -135.06466 | 5650 ft | 166 kts | 9° |
| 2026-04-14 16:46 | 58.34643 | -135.05905 | 5652 ft | 140 kts | 26° |
| 2026-04-14 16:46 | 58.35411 | -135.04803 | 5447 ft | 137 kts | 47° |
| 2026-04-14 16:46 | 58.35779 | -135.03170 | 5252 ft | 139 kts | 84° |
| 2026-04-14 16:47 | 58.35863 | -135.01324 | 5071 ft | 142 kts | 79° |
| 2026-04-14 16:47 | 58.35975 | -134.99451 | 4845 ft | 143 kts | 82° |
| 2026-04-14 16:47 | 58.36027 | -134.97557 | 4631 ft | 144 kts | 85° |
| 2026-04-14 16:47 | 58.36040 | -134.95661 | 4431 ft | 141 kts | 86° |
| 2026-04-14 16:48 | 58.36038 | -134.93822 | 4255 ft | 140 kts | 87° |
| 2026-04-14 16:48 | 58.36029 | -134.91970 | 4038 ft | 139 kts | 87° |
| 2026-04-14 16:48 | 58.36019 | -134.90122 | 3806 ft | 139 kts | 87° |
| 2026-04-14 16:48 | 58.36008 | -134.88286 | 3581 ft | 138 kts | 87° |
| 2026-04-14 16:49 | 58.35998 | -134.86477 | 3361 ft | 138 kts | 87° |
| 2026-04-14 16:49 | 58.35987 | -134.84623 | 3132 ft | 138 kts | 87° |
| 2026-04-14 16:49 | 58.35977 | -134.82815 | 2908 ft | 138 kts | 87° |
| 2026-04-14 16:49 | 58.35967 | -134.80967 | 2674 ft | 138 kts | 88° |
| 2026-04-14 16:50 | 58.35958 | -134.79170 | 2458 ft | 138 kts | 88° |
| 2026-04-14 16:50 | 58.35949 | -134.77343 | 2239 ft | 138 kts | 88° |
| 2026-04-14 16:50 | 58.35940 | -134.75520 | 2012 ft | 138 kts | 88° |
| 2026-04-14 16:50 | 58.35932 | -134.73700 | 1790 ft | 137 kts | 89° |
| 2026-04-14 16:51 | 58.35928 | -134.71887 | 1571 ft | 137 kts | 88° |
| 2026-04-14 16:51 | 58.35941 | -134.70070 | 1351 ft | 137 kts | 86° |
| 2026-04-14 16:51 | 58.36003 | -134.68282 | 1174 ft | 133 kts | 83° |
| 2026-04-14 16:51 | 58.36065 | -134.66553 | 991 ft | 129 kts | 84° |
| 2026-04-14 16:52 | 58.36097 | -134.64835 | 780 ft | 131 kts | 86° |
| 2026-04-14 16:52 | 58.36098 | -134.63105 | 551 ft | 130 kts | 91° |
| 2026-04-14 16:52 | 58.35959 | -134.61409 | 337 ft | 130 kts | 98° |
| 2026-04-14 16:52 | 58.35777 | -134.59669 | 93 ft | 138 kts | 105° |
| 2026-04-14 16:53 | 58.35555 | -134.58027 | 31 ft | 104 kts | 106° |
| 2026-04-14 16:53 | 58.35419 | -134.57101 | 31 ft | 41 kts | 104° |
| 2026-04-14 16:53 | 58.35377 | -134.56758 | 32 ft | 16 kts | 88° |
| 2026-04-14 16:53 | 58.35441 | -134.56670 | 32 ft | 10 kts | 15° |
| 2026-04-14 16:54 | 58.35481 | -134.56743 | 33 ft | 9 kts | 286° |
| 2026-04-14 16:54 | 58.35498 | -134.56856 | 33 ft | 9 kts | 285° |
| 2026-04-14 16:54 | 58.35516 | -134.56980 | 33 ft | 14 kts | 285° |
| 2026-04-14 16:54 | 58.35549 | -134.57204 | 33 ft | 18 kts | 283° |
| 2026-04-14 16:55 | 58.35578 | -134.57436 | 33 ft | 18 kts | 283° |
| 2026-04-14 16:55 | 58.35608 | -134.57658 | 33 ft | 17 kts | 285° |
| 2026-04-14 16:55 | 58.35635 | -134.57843 | 33 ft | 13 kts | 289° |
| 2026-04-14 16:55 | 58.35656 | -134.57977 | 32 ft | 9 kts | 285° |
| 2026-04-14 16:56 | 58.35673 | -134.58092 | 33 ft | 9 kts | 285° |
| 2026-04-14 16:56 | 58.35689 | -134.58204 | 32 ft | 9 kts | 285° |
| 2026-04-14 16:56 | 58.35707 | -134.58329 | 33 ft | 12 kts | 285° |
| 2026-04-14 16:56 | 58.35729 | -134.58486 | 31 ft | 12 kts | 285° |
| 2026-04-14 16:57 | 58.35745 | -134.58581 | 33 ft | 7 kts | 295° |
| 2026-04-14 16:57 | 58.35781 | -134.58585 | 33 ft | 6 kts | 50° |
| 2026-04-14 16:57 | 58.35804 | -134.58523 | 33 ft | 4 kts | 51° |
| 2026-04-14 16:57 | 58.35822 | -134.58482 | 33 ft | 5 kts | 49° |
| 2026-04-14 16:58 | 58.35839 | -134.58446 | 31 ft | 2 kts | 49° |
| 2026-04-14 16:58 | 58.35847 | -134.58429 | 33 ft | 0 kts | 48° |